createdAt,value
2022-10-05T02:42:31.684Z,99.90
2022-10-05T02:45:07.363Z,99.90
2022-10-05T02:47:46.301Z,99.90
2022-10-05T02:50:21.636Z,99.90
2022-10-05T02:52:51.148Z,99.90
2022-10-05T02:55:19.947Z,99.90
2022-10-05T02:57:56.277Z,99.90
2022-10-05T03:00:26.203Z,99.90
2022-10-05T03:03:15.405Z,99.90
2022-10-05T03:05:54.535Z,99.90
2022-10-05T03:08:32.957Z,99.90
2022-10-05T03:11:00.624Z,99.90
2022-10-05T03:13:40.217Z,99.90
2022-10-05T03:16:13.108Z,99.90
2022-10-05T03:18:40.027Z,99.90
2022-10-05T03:21:11.084Z,99.90
2022-10-05T03:23:49.595Z,99.90
2022-10-05T03:26:29.685Z,99.90
2022-10-05T03:29:08.907Z,99.90
2022-10-05T03:31:43.821Z,99.90
2022-10-05T03:34:23.158Z,99.90
2022-10-05T03:36:53.143Z,99.90
2022-10-05T03:39:26.368Z,99.90
2022-10-05T03:42:00.243Z,99.90
2022-10-05T03:44:32.996Z,99.90
2022-10-05T03:46:59.696Z,99.90
2022-10-05T03:49:35.714Z,99.90
2022-10-05T03:52:07.179Z,99.90
2022-10-05T03:54:43.149Z,99.90
2022-10-05T03:57:21.356Z,99.90
2022-10-05T03:59:56.302Z,99.90
2022-10-05T04:02:29.118Z,99.90
2022-10-05T04:04:56.090Z,99.90
2022-10-05T04:07:38.515Z,99.90
2022-10-05T04:10:10.051Z,99.90
2022-10-05T04:12:38.758Z,99.90
2022-10-05T04:15:24.530Z,99.90
2022-10-05T04:17:56.096Z,99.90
2022-10-05T04:20:25.796Z,99.90
2022-10-05T04:22:58.761Z,99.90
2022-10-05T04:25:35.699Z,99.90
2022-10-05T04:28:14.663Z,99.90
2022-10-05T04:30:44.786Z,99.90
2022-10-05T04:33:12.345Z,99.90
2022-10-05T04:35:57.993Z,99.90
2022-10-05T04:38:34.745Z,99.90
2022-10-05T04:41:11.438Z,99.90
2022-10-05T04:43:51.065Z,99.90
2022-10-05T04:46:27.466Z,99.90
2022-10-05T04:49:03.241Z,99.90
2022-10-05T04:51:30.231Z,99.90
2022-10-05T04:54:02.023Z,99.90
2022-10-05T04:56:51.479Z,99.90
2022-10-05T04:59:37.233Z,99.90
2022-10-05T05:02:03.928Z,99.90
2022-10-05T05:04:52.015Z,99.90
2022-10-05T05:07:52.514Z,99.90
2022-10-05T05:10:51.835Z,99.90
2022-10-05T05:13:25.013Z,99.90
2022-10-05T05:16:01.486Z,99.90
2022-10-05T05:18:53.333Z,99.90
2022-10-05T05:21:29.147Z,99.90
2022-10-05T05:24:09.219Z,99.90
2022-10-05T05:26:49.799Z,99.90
2022-10-05T05:29:21.458Z,99.90
2022-10-05T05:31:51.891Z,99.90
2022-10-05T05:34:19.281Z,99.90
2022-10-05T05:37:01.305Z,99.90
2022-10-05T05:39:29.226Z,99.90
2022-10-05T05:41:59.366Z,99.90
2022-10-05T05:44:27.846Z,99.90
2022-10-05T05:47:04.944Z,99.90
2022-10-05T05:49:41.820Z,99.90
2022-10-05T05:52:20.171Z,99.90
2022-10-05T05:54:54.657Z,99.90
2022-10-05T05:57:33.186Z,99.90
2022-10-05T05:59:59.829Z,99.90
2022-10-05T06:02:29.218Z,99.90
2022-10-05T06:05:02.594Z,99.90
2022-10-05T06:07:30.854Z,99.90
2022-10-05T06:10:04.270Z,99.90
2022-10-05T06:12:42.905Z,99.90
2022-10-05T06:15:28.518Z,99.90
2022-10-05T06:17:57.895Z,99.90
2022-10-05T06:20:49.051Z,99.90
2022-10-05T06:23:42.353Z,99.90
2022-10-05T06:26:12.906Z,99.90
2022-10-05T06:28:41.539Z,99.90
2022-10-05T07:23:52.383Z,99.90
2022-10-05T07:26:27.696Z,99.90
2022-10-05T07:29:06.928Z,99.90
2022-10-05T07:32:03.898Z,99.90
2022-10-05T07:34:39.977Z,99.90
2022-10-05T07:37:06.961Z,99.90
2022-10-05T07:39:58.443Z,99.90
2022-10-05T07:42:38.476Z,99.90
2022-10-05T07:45:22.002Z,99.90
2022-10-05T07:47:53.248Z,99.90
2022-10-05T07:50:34.867Z,99.90
2022-10-05T07:53:05.079Z,99.90
2022-10-05T07:55:33.864Z,99.90
2022-10-05T07:58:20.256Z,99.90
2022-10-05T08:00:55.022Z,99.90
2022-10-05T08:03:42.030Z,99.90
2022-10-05T08:06:12.077Z,99.90
2022-10-05T08:08:38.740Z,99.90
2022-10-05T08:11:11.260Z,99.90
2022-10-05T08:13:42.320Z,99.90
2022-10-05T08:16:10.356Z,99.90
2022-10-05T08:18:48.319Z,99.90
2022-10-05T08:21:16.908Z,99.90
2022-10-05T08:24:02.233Z,99.90
2022-10-05T08:26:34.931Z,99.90
2022-10-05T08:29:13.728Z,99.90
2022-10-05T08:31:42.905Z,99.90
2022-10-05T08:34:21.058Z,99.90
2022-10-05T08:37:00.585Z,99.90
2022-10-05T08:39:30.588Z,99.90
2022-10-05T08:42:06.489Z,99.90
2022-10-05T08:44:51.763Z,99.90
2022-10-05T08:47:21.360Z,99.90
2022-10-05T08:49:48.015Z,99.80
2022-10-05T08:52:29.967Z,99.90
2022-10-05T08:55:15.214Z,99.90
2022-10-05T08:57:44.649Z,99.90
2022-10-05T09:00:12.781Z,99.90
2022-10-05T09:02:58.533Z,99.90
2022-10-05T09:05:32.932Z,99.90
2022-10-05T09:08:02.401Z,99.90
2022-10-05T09:10:29.040Z,99.90
2022-10-05T09:13:11.348Z,99.90
2022-10-05T09:15:50.328Z,99.90
2022-10-05T09:18:22.899Z,99.90
2022-10-05T09:20:49.564Z,99.90
2022-10-05T09:23:35.132Z,99.90
2022-10-05T09:26:01.766Z,99.90
2022-10-05T09:28:28.449Z,99.90
2022-10-05T09:31:13.997Z,99.90
2022-10-05T09:33:59.552Z,99.90
2022-10-05T09:36:49.045Z,99.90
2022-10-05T09:39:18.800Z,99.90
2022-10-05T09:41:48.863Z,99.90
2022-10-05T09:44:15.884Z,99.90
2022-10-05T09:46:45.549Z,99.90
2022-10-05T09:49:18.240Z,99.90
2022-10-05T09:52:03.411Z,99.90
2022-10-05T09:54:32.832Z,98.70
2022-10-05T09:57:05.502Z,99.20
2022-10-05T09:59:54.186Z,99.90
2022-10-05T10:02:30.540Z,97.00
2022-10-05T10:05:04.675Z,98.00
2022-10-05T10:07:31.392Z,96.40
2022-10-05T10:10:21.584Z,94.60
2022-10-05T10:12:54.366Z,94.10
2022-10-05T10:15:39.749Z,96.10
2022-10-05T10:18:06.406Z,94.20
2022-10-05T10:20:38.547Z,93.30
2022-10-05T10:23:23.712Z,93.50
2022-10-05T10:26:10.195Z,93.20
2022-10-05T10:28:51.925Z,92.90
2022-10-05T10:31:31.025Z,92.00
2022-10-05T10:34:16.670Z,92.60
2022-10-05T10:36:55.670Z,92.40
2022-10-05T10:39:22.359Z,92.50
2022-10-05T10:41:52.133Z,93.80
2022-10-05T10:44:33.809Z,91.10
2022-10-05T10:47:00.477Z,91.60
2022-10-05T10:49:42.501Z,91.50
2022-10-05T10:52:28.201Z,91.40
2022-10-05T10:54:57.708Z,90.60
2022-10-05T10:57:43.345Z,91.70
2022-10-05T11:00:19.738Z,92.00
2022-10-05T11:02:46.458Z,91.30
2022-10-05T11:05:25.327Z,90.70
2022-10-05T11:07:58.155Z,88.90
2022-10-05T11:10:24.770Z,88.20
2022-10-05T11:12:51.410Z,90.40
2022-10-05T11:15:34.450Z,86.50
2022-10-05T11:18:13.088Z,88.20
2022-10-05T11:20:58.688Z,88.90
2022-10-05T11:23:44.004Z,89.30
2022-10-05T11:26:19.534Z,90.00
2022-10-05T11:29:02.333Z,86.60
2022-10-05T11:31:41.071Z,88.40
2022-10-05T11:34:16.394Z,86.90
2022-10-05T11:36:52.909Z,87.50
2022-10-05T11:39:35.306Z,88.70
2022-10-05T11:42:20.816Z,90.10
2022-10-05T11:44:50.506Z,88.50
2022-10-05T11:47:17.120Z,88.40
2022-10-05T11:49:49.996Z,87.10
2022-10-05T11:52:22.805Z,90.10
2022-10-05T11:55:10.260Z,89.70
2022-10-05T11:57:42.416Z,89.30
2022-10-05T12:00:23.215Z,89.90
2022-10-05T12:03:00.072Z,90.10
2022-10-05T12:05:39.722Z,88.70
2022-10-05T12:08:23.613Z,89.50
2022-10-05T12:11:06.967Z,90.30
2022-10-05T12:13:37.773Z,90.10
2022-10-05T12:16:18.536Z,90.20
2022-10-05T12:18:56.393Z,88.80
2022-10-05T12:21:41.486Z,87.50
2022-10-05T12:24:11.234Z,89.60
2022-10-05T12:26:43.520Z,88.40
2022-10-05T12:29:13.174Z,90.10
2022-10-05T12:31:39.856Z,89.90
2022-10-05T12:34:09.548Z,89.00
2022-10-05T12:37:05.796Z,88.40
2022-10-05T12:39:37.742Z,88.20
2022-10-05T12:42:07.518Z,89.90
2022-10-05T12:44:34.116Z,88.30
2022-10-05T12:47:19.559Z,86.70
2022-10-05T12:49:58.121Z,88.20
2022-10-05T12:52:27.789Z,88.00
2022-10-05T12:55:00.282Z,88.00
2022-10-05T12:57:31.447Z,87.60
2022-10-05T13:00:02.356Z,87.80
2022-10-05T13:02:41.049Z,88.10
2022-10-05T13:05:10.525Z,87.50
2022-10-05T13:07:37.164Z,88.70
2022-10-05T13:10:22.640Z,89.80
2022-10-05T13:12:57.903Z,86.80
2022-10-05T13:15:43.448Z,88.70
2022-10-05T13:18:12.914Z,88.00
2022-10-05T13:20:44.214Z,89.00
2022-10-05T13:23:16.888Z,88.90
2022-10-05T13:26:03.792Z,88.50
2022-10-05T13:28:34.883Z,89.00
2022-10-05T13:31:22.984Z,90.30
2022-10-05T13:33:58.059Z,88.80
2022-10-05T13:36:39.193Z,89.30
2022-10-05T13:39:06.095Z,90.30
2022-10-05T13:41:32.778Z,90.10
2022-10-05T13:43:59.429Z,90.60
2022-10-05T13:46:29.194Z,90.50
2022-10-05T13:49:03.386Z,90.20
2022-10-05T13:51:30.069Z,89.20
2022-10-05T13:54:06.107Z,90.30
2022-10-05T13:56:35.386Z,90.50
2022-10-05T13:59:17.243Z,91.40
2022-10-05T14:01:47.792Z,91.20
2022-10-05T14:04:21.595Z,90.60
2022-10-05T14:06:49.047Z,91.40
2022-10-05T14:09:22.000Z,91.00
2022-10-05T14:12:11.733Z,91.80
2022-10-05T14:14:49.562Z,91.30
2022-10-05T14:17:32.118Z,92.00
2022-10-05T14:20:00.446Z,92.10
2022-10-05T14:22:27.515Z,92.30
2022-10-05T14:24:55.570Z,92.70
2022-10-05T14:27:26.564Z,92.30
2022-10-05T14:29:57.935Z,92.90
2022-10-05T14:32:25.380Z,92.50
2022-10-05T14:34:58.633Z,92.60
2022-10-05T14:37:31.240Z,93.00
2022-10-05T14:40:03.397Z,93.00
2022-10-05T14:42:44.941Z,93.50
2022-10-05T14:45:24.128Z,93.30
2022-10-05T14:47:55.283Z,93.90
2022-10-05T14:50:23.290Z,94.00
2022-10-05T14:53:08.674Z,94.50
2022-10-05T14:55:50.861Z,94.50
2022-10-05T14:58:43.953Z,94.20
2022-10-05T15:01:21.518Z,94.40
2022-10-05T15:03:58.090Z,94.60
2022-10-05T15:06:31.547Z,94.90
2022-10-05T15:09:01.190Z,95.30
2022-10-05T15:11:46.759Z,95.80
2022-10-05T15:14:33.875Z,95.90
2022-10-05T15:17:02.775Z,96.60
2022-10-05T15:19:42.315Z,96.80
2022-10-05T15:22:27.517Z,97.50
2022-10-05T15:25:12.835Z,97.50
2022-10-05T15:27:58.059Z,97.70
2022-10-05T15:30:24.787Z,98.60
2022-10-05T15:33:03.565Z,99.00
2022-10-05T15:35:48.949Z,99.80
2022-10-05T15:38:26.050Z,99.90
2022-10-05T15:41:01.914Z,99.90
2022-10-05T15:43:33.494Z,99.90
2022-10-05T15:46:05.134Z,99.90
2022-10-05T15:48:41.220Z,99.90
2022-10-05T15:51:21.572Z,99.90
2022-10-05T15:53:54.134Z,99.90
2022-10-05T15:56:29.182Z,99.90
2022-10-05T15:59:01.747Z,99.90
2022-10-05T16:01:31.452Z,99.90
2022-10-05T16:04:10.968Z,99.90
2022-10-05T16:06:37.598Z,99.90
2022-10-05T16:09:18.181Z,99.90
2022-10-05T16:11:53.967Z,99.90
2022-10-05T16:14:38.203Z,99.90
2022-10-05T16:17:07.906Z,99.90
2022-10-05T16:19:45.250Z,99.90
2022-10-05T16:22:24.974Z,99.90
2022-10-05T16:24:57.381Z,99.90
2022-10-05T16:27:33.132Z,99.90
2022-10-05T16:30:04.798Z,99.90
2022-10-05T16:32:42.322Z,99.90
2022-10-05T16:35:11.763Z,99.90
2022-10-05T16:37:43.138Z,99.90
2022-10-05T16:40:28.785Z,99.90
2022-10-05T16:43:14.156Z,99.90
2022-10-05T16:45:49.421Z,99.90
2022-10-05T16:48:22.459Z,99.90
2022-10-05T16:50:52.284Z,99.90
2022-10-05T16:53:25.208Z,99.90
2022-10-05T16:55:54.461Z,99.90
2022-10-05T16:58:24.827Z,99.90
2022-10-05T17:01:00.425Z,99.90
2022-10-05T17:03:38.328Z,99.90
2022-10-05T17:06:04.987Z,99.90
2022-10-05T17:08:34.650Z,99.90
2022-10-05T17:11:01.285Z,99.90
2022-10-05T17:13:34.092Z,99.90
2022-10-05T17:16:14.778Z,99.90
2022-10-05T17:18:47.681Z,99.90
2022-10-05T17:21:32.961Z,99.90
2022-10-05T17:24:05.738Z,99.90
2022-10-05T17:26:33.994Z,99.90
2022-10-05T17:29:24.027Z,99.90
2022-10-05T17:32:05.901Z,99.90
2022-10-05T17:34:33.518Z,99.90
2022-10-05T17:37:19.062Z,99.90
2022-10-05T17:39:50.837Z,99.90
2022-10-05T17:42:26.891Z,99.90
2022-10-05T17:45:20.128Z,99.90
2022-10-05T17:48:01.077Z,99.90
2022-10-05T17:50:37.895Z,99.90
2022-10-05T17:53:21.638Z,99.90
2022-10-05T17:56:00.963Z,99.90
2022-10-05T17:58:28.068Z,99.90
2022-10-05T18:00:58.124Z,99.90
2022-10-05T18:03:35.803Z,99.90
2022-10-05T18:06:21.514Z,99.90
2022-10-05T18:08:48.184Z,99.90
2022-10-05T18:11:33.219Z,99.90
2022-10-05T18:14:19.777Z,99.90
2022-10-05T18:16:59.565Z,99.90
2022-10-05T18:19:27.852Z,99.90
2022-10-05T18:22:21.112Z,99.90
2022-10-05T18:25:02.145Z,99.90
2022-10-05T18:27:30.787Z,99.90
2022-10-05T18:29:57.596Z,99.90
2022-10-05T18:32:43.070Z,99.90
2022-10-05T18:35:21.387Z,99.90
2022-10-05T18:38:03.206Z,99.90
2022-10-05T18:40:46.188Z,99.90
2022-10-05T18:43:28.219Z,99.90
2022-10-05T18:45:57.872Z,99.90
2022-10-05T18:48:30.755Z,99.90
2022-10-05T18:51:06.188Z,99.90
2022-10-05T18:53:33.551Z,99.90
2022-10-05T18:56:20.915Z,99.90
2022-10-05T18:58:57.142Z,99.90
2022-10-05T19:01:30.151Z,99.90
2022-10-05T19:04:03.743Z,99.90
2022-10-05T19:06:33.197Z,99.90
2022-10-05T19:09:20.194Z,99.90
2022-10-05T19:11:46.914Z,99.90
2022-10-05T19:14:13.955Z,99.90
2022-10-05T19:16:51.131Z,99.90
2022-10-05T19:19:37.093Z,99.90
2022-10-05T19:22:03.821Z,99.90
2022-10-05T19:24:36.349Z,99.90
2022-10-05T19:27:12.220Z,99.90
2022-10-05T19:29:57.441Z,99.90
2022-10-05T19:32:36.236Z,99.90
2022-10-05T19:35:03.335Z,99.90
2022-10-05T19:37:39.650Z,99.90
2022-10-05T19:40:32.930Z,99.90
2022-10-05T19:43:18.975Z,99.90
2022-10-05T19:46:05.982Z,99.90
2022-10-05T19:48:32.773Z,99.90
2022-10-05T19:51:00.675Z,99.90
2022-10-05T19:53:32.665Z,99.90
2022-10-05T19:56:19.496Z,99.90
2022-10-05T19:58:46.814Z,99.90
2022-10-05T20:01:22.132Z,99.90
2022-10-05T20:03:50.436Z,99.90
2022-10-05T20:06:18.964Z,99.90
2022-10-05T20:08:47.000Z,99.90
2022-10-05T20:11:18.397Z,99.90
2022-10-05T20:14:08.260Z,99.90
2022-10-05T20:16:35.361Z,99.90
2022-10-05T20:19:03.122Z,99.90
2022-10-05T20:21:38.940Z,99.90
2022-10-05T20:24:16.681Z,99.90
2022-10-05T20:26:43.399Z,99.90
2022-10-05T20:29:10.170Z,99.90
2022-10-05T20:31:36.911Z,99.90
2022-10-05T20:34:03.774Z,99.90
2022-10-05T20:36:30.509Z,99.90
2022-10-05T20:38:57.291Z,99.90
2022-10-05T20:41:24.029Z,99.90
2022-10-05T20:43:50.742Z,99.90
2022-10-05T20:46:17.500Z,99.90
2022-10-05T20:48:44.443Z,99.90
2022-10-05T20:51:11.228Z,99.90
2022-10-05T20:53:37.941Z,99.90
2022-10-05T20:56:04.718Z,99.90
2022-10-05T20:58:31.754Z,99.90
2022-10-05T21:00:58.663Z,99.90
2022-10-05T21:03:25.428Z,99.90
2022-10-05T21:05:52.130Z,99.90
2022-10-05T21:08:18.918Z,99.90
2022-10-05T21:10:45.613Z,99.90
2022-10-05T21:13:12.263Z,99.90
2022-10-05T21:15:38.886Z,99.90
2022-10-05T21:18:05.543Z,99.90
2022-10-05T21:20:32.225Z,99.90
2022-10-05T21:22:58.847Z,99.90
2022-10-05T21:25:25.492Z,99.90
2022-10-05T21:27:52.202Z,99.90
2022-10-05T21:30:18.826Z,99.90
2022-10-05T21:32:45.576Z,99.90
2022-10-05T21:35:12.245Z,99.90
2022-10-05T21:37:38.976Z,99.90
2022-10-05T21:40:05.924Z,99.90
2022-10-05T21:42:32.641Z,99.90
2022-10-05T21:44:59.304Z,99.90
2022-10-05T21:47:25.990Z,99.90
2022-10-05T21:49:52.937Z,99.90
2022-10-05T21:52:19.935Z,99.90
2022-10-05T21:54:46.695Z,99.90
2022-10-05T21:57:13.385Z,99.90
2022-10-05T21:59:40.233Z,99.90
2022-10-05T22:02:06.886Z,99.90
2022-10-05T22:04:33.576Z,99.90
2022-10-05T22:07:00.300Z,99.90
2022-10-05T22:09:26.967Z,99.90
2022-10-05T22:11:53.650Z,99.90
2022-10-05T22:14:20.263Z,99.90
2022-10-05T22:16:47.036Z,99.90
2022-10-05T22:19:15.479Z,99.90
2022-10-05T22:21:42.170Z,99.90
2022-10-05T22:24:09.243Z,99.90
2022-10-05T22:26:35.999Z,99.90
2022-10-05T22:29:02.774Z,99.90
2022-10-05T22:31:29.563Z,99.90
2022-10-05T22:33:56.279Z,99.90
2022-10-05T22:36:23.013Z,99.90
2022-10-05T22:38:49.691Z,99.90
2022-10-05T22:41:16.386Z,99.90
2022-10-05T22:43:43.133Z,99.90
2022-10-05T22:46:13.191Z,99.90
2022-10-05T22:51:07.300Z,99.90
2022-10-05T22:53:34.227Z,99.90
2022-10-05T22:56:08.000Z,99.90
2022-10-05T22:58:35.029Z,99.90
2022-10-05T23:01:02.599Z,99.90
2022-10-05T23:03:29.762Z,99.90
2022-10-05T23:05:57.736Z,99.90
2022-10-05T23:08:24.557Z,99.90
2022-10-05T23:10:51.272Z,99.90
2022-10-05T23:13:17.926Z,99.90
2022-10-05T23:15:44.634Z,99.90
2022-10-05T23:18:11.785Z,99.90
2022-10-05T23:20:38.470Z,99.90
2022-10-05T23:23:05.097Z,99.90
2022-10-05T23:25:31.742Z,99.90
2022-10-05T23:27:58.415Z,99.90
2022-10-05T23:30:25.261Z,99.90
2022-10-05T23:32:51.954Z,99.90
2022-10-05T23:35:18.625Z,99.90
2022-10-05T23:37:45.407Z,99.90
2022-10-05T23:40:13.769Z,99.90
2022-10-05T23:42:40.844Z,99.90
2022-10-05T23:45:11.339Z,99.90
2022-10-05T23:47:38.567Z,99.90
2022-10-05T23:50:05.831Z,99.90
2022-10-05T23:52:33.113Z,99.90
2022-10-05T23:54:59.779Z,99.90
2022-10-05T23:57:26.446Z,99.90
2022-10-05T23:59:53.301Z,99.90
